sensor_id;sensor_type;location;lat;lon;timestamp;P1;durP1;ratioP1;P2;durP2;ratioP2
6207;SDS011;3137;51.550;7.060;2023-05-07T00:02:24;23.60;;;17.57;;
6207;SDS011;3137;51.550;7.060;2023-05-07T00:04:51;19.80;;;17.80;;
6207;SDS011;3137;51.550;7.060;2023-05-07T00:07:18;20.87;;;18.40;;
6207;SDS011;3137;51.550;7.060;2023-05-07T00:09:44;19.77;;;17.83;;
6207;SDS011;3137;51.550;7.060;2023-05-07T00:12:10;24.60;;;18.77;;
6207;SDS011;3137;51.550;7.060;2023-05-07T00:14:37;18.40;;;16.90;;
6207;SDS011;3137;51.550;7.060;2023-05-07T00:17:03;19.13;;;17.33;;
6207;SDS011;3137;51.550;7.060;2023-05-07T00:19:30;19.90;;;17.87;;
6207;SDS011;3137;51.550;7.060;2023-05-07T00:21:56;18.17;;;16.40;;
6207;SDS011;3137;51.550;7.060;2023-05-07T00:24:23;19.27;;;17.10;;
6207;SDS011;3137;51.550;7.060;2023-05-07T00:26:49;20.07;;;17.90;;
6207;SDS011;3137;51.550;7.060;2023-05-07T00:29:16;19.80;;;17.80;;
6207;SDS011;3137;51.550;7.060;2023-05-07T00:31:42;18.33;;;16.57;;
6207;SDS011;3137;51.550;7.060;2023-05-07T00:34:09;19.83;;;17.93;;
6207;SDS011;3137;51.550;7.060;2023-05-07T00:36:35;22.57;;;19.47;;
6207;SDS011;3137;51.550;7.060;2023-05-07T00:39:01;20.80;;;18.50;;
6207;SDS011;3137;51.550;7.060;2023-05-07T00:41:29;23.00;;;20.60;;
6207;SDS011;3137;51.550;7.060;2023-05-07T00:43:58;21.57;;;18.97;;
6207;SDS011;3137;51.550;7.060;2023-05-07T00:46:25;22.27;;;20.03;;
6207;SDS011;3137;51.550;7.060;2023-05-07T00:48:52;25.77;;;22.10;;
6207;SDS011;3137;51.550;7.060;2023-05-07T00:51:19;23.60;;;20.70;;
6207;SDS011;3137;51.550;7.060;2023-05-07T00:53:46;22.73;;;20.53;;
6207;SDS011;3137;51.550;7.060;2023-05-07T00:56:12;23.10;;;19.77;;
6207;SDS011;3137;51.550;7.060;2023-05-07T00:58:39;22.33;;;20.00;;
6207;SDS011;3137;51.550;7.060;2023-05-07T01:01:06;26.80;;;21.63;;
6207;SDS011;3137;51.550;7.060;2023-05-07T01:03:33;24.07;;;21.60;;
6207;SDS011;3137;51.550;7.060;2023-05-07T01:06:00;23.97;;;20.27;;
6207;SDS011;3137;51.550;7.060;2023-05-07T01:08:29;22.40;;;20.00;;
6207;SDS011;3137;51.550;7.060;2023-05-07T01:10:56;24.13;;;21.57;;
6207;SDS011;3137;51.550;7.060;2023-05-07T01:13:23;28.20;;;23.50;;
6207;SDS011;3137;51.550;7.060;2023-05-07T01:15:50;28.90;;;22.40;;
6207;SDS011;3137;51.550;7.060;2023-05-07T01:18:17;30.53;;;25.43;;
6207;SDS011;3137;51.550;7.060;2023-05-07T01:20:44;27.97;;;23.57;;
6207;SDS011;3137;51.550;7.060;2023-05-07T01:23:11;32.53;;;25.10;;
6207;SDS011;3137;51.550;7.060;2023-05-07T01:25:38;26.80;;;23.57;;
6207;SDS011;3137;51.550;7.060;2023-05-07T01:28:05;28.20;;;23.13;;
6207;SDS011;3137;51.550;7.060;2023-05-07T01:30:35;24.90;;;22.30;;
6207;SDS011;3137;51.550;7.060;2023-05-07T01:33:09;31.37;;;24.43;;
6207;SDS011;3137;51.550;7.060;2023-05-07T01:35:43;27.33;;;23.27;;
6207;SDS011;3137;51.550;7.060;2023-05-07T01:38:13;25.90;;;23.07;;
6207;SDS011;3137;51.550;7.060;2023-05-07T01:40:40;29.37;;;25.23;;
6207;SDS011;3137;51.550;7.060;2023-05-07T01:43:07;28.50;;;22.57;;
6207;SDS011;3137;51.550;7.060;2023-05-07T01:45:35;30.03;;;25.00;;
6207;SDS011;3137;51.550;7.060;2023-05-07T01:48:02;26.27;;;23.57;;
6207;SDS011;3137;51.550;7.060;2023-05-07T01:50:30;27.53;;;24.30;;
6207;SDS011;3137;51.550;7.060;2023-05-07T01:52:57;30.87;;;25.07;;
6207;SDS011;3137;51.550;7.060;2023-05-07T01:55:24;33.57;;;22.30;;
6207;SDS011;3137;51.550;7.060;2023-05-07T01:57:50;27.37;;;23.40;;
6207;SDS011;3137;51.550;7.060;2023-05-07T02:00:17;28.20;;;23.57;;
6207;SDS011;3137;51.550;7.060;2023-05-07T02:02:45;26.60;;;23.03;;
6207;SDS011;3137;51.550;7.060;2023-05-07T02:05:27;28.50;;;23.80;;
6207;SDS011;3137;51.550;7.060;2023-05-07T02:08:09;28.10;;;23.70;;
6207;SDS011;3137;51.550;7.060;2023-05-07T02:10:36;26.93;;;23.47;;
6207;SDS011;3137;51.550;7.060;2023-05-07T02:13:04;25.03;;;22.37;;
6207;SDS011;3137;51.550;7.060;2023-05-07T02:15:31;30.87;;;24.00;;
6207;SDS011;3137;51.550;7.060;2023-05-07T02:18:07;26.47;;;23.00;;
6207;SDS011;3137;51.550;7.060;2023-05-07T02:20:35;27.63;;;24.33;;
6207;SDS011;3137;51.550;7.060;2023-05-07T02:23:01;30.70;;;24.80;;
6207;SDS011;3137;51.550;7.060;2023-05-07T02:25:29;27.30;;;24.33;;
6207;SDS011;3137;51.550;7.060;2023-05-07T02:27:56;25.93;;;21.93;;
6207;SDS011;3137;51.550;7.060;2023-05-07T02:30:32;29.47;;;23.57;;
6207;SDS011;3137;51.550;7.060;2023-05-07T02:32:59;25.73;;;21.83;;
6207;SDS011;3137;51.550;7.060;2023-05-07T02:35:26;30.30;;;24.33;;
6207;SDS011;3137;51.550;7.060;2023-05-07T02:37:52;28.20;;;24.10;;
6207;SDS011;3137;51.550;7.060;2023-05-07T02:40:19;27.70;;;24.70;;
6207;SDS011;3137;51.550;7.060;2023-05-07T02:42:46;25.97;;;23.10;;
6207;SDS011;3137;51.550;7.060;2023-05-07T02:45:12;23.90;;;21.37;;
6207;SDS011;3137;51.550;7.060;2023-05-07T02:47:41;26.80;;;23.90;;
6207;SDS011;3137;51.550;7.060;2023-05-07T02:50:08;25.40;;;22.07;;
6207;SDS011;3137;51.550;7.060;2023-05-07T02:52:35;26.97;;;22.60;;
6207;SDS011;3137;51.550;7.060;2023-05-07T02:55:01;27.93;;;23.50;;
6207;SDS011;3137;51.550;7.060;2023-05-07T02:57:28;28.37;;;23.90;;
6207;SDS011;3137;51.550;7.060;2023-05-07T02:59:55;29.27;;;25.10;;
6207;SDS011;3137;51.550;7.060;2023-05-07T03:02:24;31.33;;;24.97;;
6207;SDS011;3137;51.550;7.060;2023-05-07T03:04:51;26.40;;;23.07;;
6207;SDS011;3137;51.550;7.060;2023-05-07T03:07:17;31.53;;;24.87;;
6207;SDS011;3137;51.550;7.060;2023-05-07T03:09:44;31.77;;;25.20;;
6207;SDS011;3137;51.550;7.060;2023-05-07T03:12:11;27.13;;;23.27;;
6207;SDS011;3137;51.550;7.060;2023-05-07T03:14:37;31.00;;;24.37;;
6207;SDS011;3137;51.550;7.060;2023-05-07T03:17:03;32.10;;;23.37;;
6207;SDS011;3137;51.550;7.060;2023-05-07T03:19:30;27.37;;;23.83;;
6207;SDS011;3137;51.550;7.060;2023-05-07T03:21:57;32.67;;;23.80;;
6207;SDS011;3137;51.550;7.060;2023-05-07T03:24:23;34.00;;;24.97;;
6207;SDS011;3137;51.550;7.060;2023-05-07T03:26:49;34.77;;;24.10;;
6207;SDS011;3137;51.550;7.060;2023-05-07T03:29:16;30.47;;;23.97;;
6207;SDS011;3137;51.550;7.060;2023-05-07T03:31:43;43.70;;;23.77;;
6207;SDS011;3137;51.550;7.060;2023-05-07T03:34:09;29.00;;;23.27;;
6207;SDS011;3137;51.550;7.060;2023-05-07T03:36:36;29.73;;;22.00;;
6207;SDS011;3137;51.550;7.060;2023-05-07T03:39:09;30.40;;;23.43;;
6207;SDS011;3137;51.550;7.060;2023-05-07T03:41:39;28.67;;;22.50;;
6207;SDS011;3137;51.550;7.060;2023-05-07T03:44:05;34.60;;;24.83;;
6207;SDS011;3137;51.550;7.060;2023-05-07T03:46:32;28.57;;;23.53;;
6207;SDS011;3137;51.550;7.060;2023-05-07T03:48:59;39.57;;;26.03;;
6207;SDS011;3137;51.550;7.060;2023-05-07T03:51:26;28.97;;;23.07;;
6207;SDS011;3137;51.550;7.060;2023-05-07T03:53:53;38.63;;;27.03;;
6207;SDS011;3137;51.550;7.060;2023-05-07T03:56:20;34.80;;;25.53;;
6207;SDS011;3137;51.550;7.060;2023-05-07T03:58:53;33.10;;;25.23;;
6207;SDS011;3137;51.550;7.060;2023-05-07T04:01:20;32.67;;;24.90;;
6207;SDS011;3137;51.550;7.060;2023-05-07T04:03:47;36.47;;;25.30;;
6207;SDS011;3137;51.550;7.060;2023-05-07T04:06:15;36.50;;;25.17;;
6207;SDS011;3137;51.550;7.060;2023-05-07T04:08:43;25.87;;;21.97;;
6207;SDS011;3137;51.550;7.060;2023-05-07T04:11:10;28.13;;;23.87;;
6207;SDS011;3137;51.550;7.060;2023-05-07T04:13:36;24.57;;;21.77;;
6207;SDS011;3137;51.550;7.060;2023-05-07T04:16:05;25.17;;;21.13;;
6207;SDS011;3137;51.550;7.060;2023-05-07T04:18:34;25.90;;;21.27;;
6207;SDS011;3137;51.550;7.060;2023-05-07T04:21:00;28.77;;;23.57;;
6207;SDS011;3137;51.550;7.060;2023-05-07T04:23:27;27.30;;;22.77;;
6207;SDS011;3137;51.550;7.060;2023-05-07T04:25:54;40.93;;;23.87;;
6207;SDS011;3137;51.550;7.060;2023-05-07T04:28:28;30.67;;;23.03;;
6207;SDS011;3137;51.550;7.060;2023-05-07T04:30:54;29.90;;;22.23;;
6207;SDS011;3137;51.550;7.060;2023-05-07T04:33:21;29.73;;;22.37;;
6207;SDS011;3137;51.550;7.060;2023-05-07T04:35:49;26.43;;;22.67;;
6207;SDS011;3137;51.550;7.060;2023-05-07T04:38:15;30.63;;;22.50;;
6207;SDS011;3137;51.550;7.060;2023-05-07T04:40:43;31.90;;;22.03;;
6207;SDS011;3137;51.550;7.060;2023-05-07T04:43:13;40.70;;;23.17;;
6207;SDS011;3137;51.550;7.060;2023-05-07T04:45:45;26.30;;;22.00;;
6207;SDS011;3137;51.550;7.060;2023-05-07T04:48:11;24.47;;;21.50;;
6207;SDS011;3137;51.550;7.060;2023-05-07T04:50:40;28.17;;;22.27;;
6207;SDS011;3137;51.550;7.060;2023-05-07T04:53:07;36.17;;;21.57;;
6207;SDS011;3137;51.550;7.060;2023-05-07T04:55:34;28.60;;;21.93;;
6207;SDS011;3137;51.550;7.060;2023-05-07T04:58:01;28.80;;;21.47;;
6207;SDS011;3137;51.550;7.060;2023-05-07T05:00:30;25.87;;;22.13;;
6207;SDS011;3137;51.550;7.060;2023-05-07T05:02:57;26.07;;;21.20;;
6207;SDS011;3137;51.550;7.060;2023-05-07T05:05:24;25.50;;;20.63;;
6207;SDS011;3137;51.550;7.060;2023-05-07T05:07:52;22.07;;;19.67;;
6207;SDS011;3137;51.550;7.060;2023-05-07T05:10:20;24.07;;;18.93;;
6207;SDS011;3137;51.550;7.060;2023-05-07T05:12:50;25.63;;;20.53;;
6207;SDS011;3137;51.550;7.060;2023-05-07T05:15:17;26.17;;;20.87;;
6207;SDS011;3137;51.550;7.060;2023-05-07T05:17:43;22.80;;;20.43;;
6207;SDS011;3137;51.550;7.060;2023-05-07T05:20:10;22.90;;;20.57;;
6207;SDS011;3137;51.550;7.060;2023-05-07T05:22:40;20.90;;;18.80;;
6207;SDS011;3137;51.550;7.060;2023-05-07T05:25:07;24.00;;;16.90;;
6207;SDS011;3137;51.550;7.060;2023-05-07T05:27:34;22.80;;;18.37;;
6207;SDS011;3137;51.550;7.060;2023-05-07T05:30:01;18.57;;;16.73;;
6207;SDS011;3137;51.550;7.060;2023-05-07T05:32:29;19.47;;;17.53;;
6207;SDS011;3137;51.550;7.060;2023-05-07T05:34:56;20.90;;;17.60;;
6207;SDS011;3137;51.550;7.060;2023-05-07T05:37:23;23.00;;;18.30;;
6207;SDS011;3137;51.550;7.060;2023-05-07T05:39:50;20.73;;;18.27;;
6207;SDS011;3137;51.550;7.060;2023-05-07T05:42:17;19.57;;;17.67;;
6207;SDS011;3137;51.550;7.060;2023-05-07T05:44:44;18.57;;;16.33;;
6207;SDS011;3137;51.550;7.060;2023-05-07T05:47:11;21.77;;;17.23;;
6207;SDS011;3137;51.550;7.060;2023-05-07T05:49:37;19.50;;;17.20;;
6207;SDS011;3137;51.550;7.060;2023-05-07T05:52:05;22.90;;;17.20;;
6207;SDS011;3137;51.550;7.060;2023-05-07T05:54:32;17.47;;;16.17;;
6207;SDS011;3137;51.550;7.060;2023-05-07T05:56:58;17.33;;;15.67;;
6207;SDS011;3137;51.550;7.060;2023-05-07T05:59:26;20.40;;;13.80;;
6207;SDS011;3137;51.550;7.060;2023-05-07T06:01:52;18.57;;;15.40;;
6207;SDS011;3137;51.550;7.060;2023-05-07T06:04:19;16.37;;;15.00;;
6207;SDS011;3137;51.550;7.060;2023-05-07T06:06:45;17.43;;;15.87;;
6207;SDS011;3137;51.550;7.060;2023-05-07T06:09:12;16.50;;;14.90;;
6207;SDS011;3137;51.550;7.060;2023-05-07T06:11:42;15.70;;;14.30;;
6207;SDS011;3137;51.550;7.060;2023-05-07T06:14:09;15.03;;;13.57;;
6207;SDS011;3137;51.550;7.060;2023-05-07T06:16:36;14.40;;;13.20;;
6207;SDS011;3137;51.550;7.060;2023-05-07T06:19:05;14.73;;;13.33;;
6207;SDS011;3137;51.550;7.060;2023-05-07T06:21:32;13.60;;;12.30;;
6207;SDS011;3137;51.550;7.060;2023-05-07T06:23:59;13.90;;;12.87;;
6207;SDS011;3137;51.550;7.060;2023-05-07T06:26:25;12.73;;;11.93;;
6207;SDS011;3137;51.550;7.060;2023-05-07T06:28:52;12.73;;;11.90;;
6207;SDS011;3137;51.550;7.060;2023-05-07T06:31:19;11.43;;;10.50;;
6207;SDS011;3137;51.550;7.060;2023-05-07T06:33:54;12.63;;;11.73;;
6207;SDS011;3137;51.550;7.060;2023-05-07T06:36:24;11.17;;;10.47;;
6207;SDS011;3137;51.550;7.060;2023-05-07T06:38:52;11.00;;;10.30;;
6207;SDS011;3137;51.550;7.060;2023-05-07T06:41:19;10.37;;;9.77;;
6207;SDS011;3137;51.550;7.060;2023-05-07T06:43:46;9.97;;;9.57;;
6207;SDS011;3137;51.550;7.060;2023-05-07T06:46:26;10.33;;;9.73;;
6207;SDS011;3137;51.550;7.060;2023-05-07T06:48:53;9.73;;;9.23;;
6207;SDS011;3137;51.550;7.060;2023-05-07T06:51:19;10.50;;;9.43;;
6207;SDS011;3137;51.550;7.060;2023-05-07T06:53:46;10.27;;;9.63;;
6207;SDS011;3137;51.550;7.060;2023-05-07T06:56:12;11.00;;;10.37;;
6207;SDS011;3137;51.550;7.060;2023-05-07T06:58:39;10.20;;;9.50;;
6207;SDS011;3137;51.550;7.060;2023-05-07T07:01:06;10.97;;;10.17;;
6207;SDS011;3137;51.550;7.060;2023-05-07T07:03:33;11.10;;;9.90;;
6207;SDS011;3137;51.550;7.060;2023-05-07T07:06:00;12.90;;;9.57;;
6207;SDS011;3137;51.550;7.060;2023-05-07T07:08:28;9.93;;;9.47;;
6207;SDS011;3137;51.550;7.060;2023-05-07T07:10:55;9.10;;;8.67;;
6207;SDS011;3137;51.550;7.060;2023-05-07T07:13:22;8.90;;;8.60;;
6207;SDS011;3137;51.550;7.060;2023-05-07T07:15:48;8.50;;;8.20;;
6207;SDS011;3137;51.550;7.060;2023-05-07T07:18:16;8.43;;;8.00;;
6207;SDS011;3137;51.550;7.060;2023-05-07T07:20:45;8.77;;;8.27;;
6207;SDS011;3137;51.550;7.060;2023-05-07T07:23:12;8.53;;;8.13;;
6207;SDS011;3137;51.550;7.060;2023-05-07T07:25:38;8.23;;;7.87;;
6207;SDS011;3137;51.550;7.060;2023-05-07T07:28:05;8.50;;;8.00;;
6207;SDS011;3137;51.550;7.060;2023-05-07T07:30:32;8.03;;;7.47;;
6207;SDS011;3137;51.550;7.060;2023-05-07T07:32:58;7.70;;;7.50;;
6207;SDS011;3137;51.550;7.060;2023-05-07T07:35:32;8.20;;;7.90;;
6207;SDS011;3137;51.550;7.060;2023-05-07T07:37:59;8.50;;;8.03;;
6207;SDS011;3137;51.550;7.060;2023-05-07T07:40:25;8.17;;;7.97;;
6207;SDS011;3137;51.550;7.060;2023-05-07T07:42:52;11.90;;;7.97;;
6207;SDS011;3137;51.550;7.060;2023-05-07T07:45:21;7.60;;;7.30;;
6207;SDS011;3137;51.550;7.060;2023-05-07T07:47:49;14.50;;;7.77;;
6207;SDS011;3137;51.550;7.060;2023-05-07T07:50:15;8.73;;;8.00;;
6207;SDS011;3137;51.550;7.060;2023-05-07T07:53:03;8.43;;;8.10;;
6207;SDS011;3137;51.550;7.060;2023-05-07T07:55:29;7.77;;;7.57;;
6207;SDS011;3137;51.550;7.060;2023-05-07T07:57:59;8.53;;;7.50;;
6207;SDS011;3137;51.550;7.060;2023-05-07T08:00:25;7.83;;;7.03;;
6207;SDS011;3137;51.550;7.060;2023-05-07T08:02:55;7.70;;;7.30;;
6207;SDS011;3137;51.550;7.060;2023-05-07T08:05:26;7.37;;;6.90;;
6207;SDS011;3137;51.550;7.060;2023-05-07T08:07:53;6.50;;;6.40;;
6207;SDS011;3137;51.550;7.060;2023-05-07T08:10:25;8.43;;;8.17;;
6207;SDS011;3137;51.550;7.060;2023-05-07T08:12:57;9.07;;;8.67;;
6207;SDS011;3137;51.550;7.060;2023-05-07T08:15:24;7.57;;;7.17;;
6207;SDS011;3137;51.550;7.060;2023-05-07T08:17:50;10.20;;;9.20;;
6207;SDS011;3137;51.550;7.060;2023-05-07T08:20:17;8.20;;;7.77;;
6207;SDS011;3137;51.550;7.060;2023-05-07T08:22:44;8.33;;;7.90;;
6207;SDS011;3137;51.550;7.060;2023-05-07T08:25:10;9.57;;;9.07;;
6207;SDS011;3137;51.550;7.060;2023-05-07T08:27:37;8.17;;;7.97;;
6207;SDS011;3137;51.550;7.060;2023-05-07T08:30:03;10.30;;;9.43;;
6207;SDS011;3137;51.550;7.060;2023-05-07T08:32:31;10.07;;;9.37;;
6207;SDS011;3137;51.550;7.060;2023-05-07T08:34:57;10.40;;;9.80;;
6207;SDS011;3137;51.550;7.060;2023-05-07T08:37:24;8.23;;;7.93;;
6207;SDS011;3137;51.550;7.060;2023-05-07T08:39:50;8.50;;;7.77;;
6207;SDS011;3137;51.550;7.060;2023-05-07T08:42:20;8.60;;;8.30;;
6207;SDS011;3137;51.550;7.060;2023-05-07T08:44:50;8.77;;;8.30;;
6207;SDS011;3137;51.550;7.060;2023-05-07T08:47:20;9.43;;;8.83;;
6207;SDS011;3137;51.550;7.060;2023-05-07T08:49:51;8.47;;;8.17;;
6207;SDS011;3137;51.550;7.060;2023-05-07T08:52:18;9.00;;;8.60;;
6207;SDS011;3137;51.550;7.060;2023-05-07T08:54:46;8.67;;;7.97;;
6207;SDS011;3137;51.550;7.060;2023-05-07T08:57:12;9.20;;;8.30;;
6207;SDS011;3137;51.550;7.060;2023-05-07T08:59:40;9.93;;;9.23;;
6207;SDS011;3137;51.550;7.060;2023-05-07T09:02:07;9.43;;;8.93;;
6207;SDS011;3137;51.550;7.060;2023-05-07T09:04:37;9.43;;;9.00;;
6207;SDS011;3137;51.550;7.060;2023-05-07T09:07:04;17.17;;;11.33;;
6207;SDS011;3137;51.550;7.060;2023-05-07T09:09:34;11.73;;;10.90;;
6207;SDS011;3137;51.550;7.060;2023-05-07T09:12:03;12.20;;;11.30;;
6207;SDS011;3137;51.550;7.060;2023-05-07T09:14:32;13.57;;;12.40;;
6207;SDS011;3137;51.550;7.060;2023-05-07T09:16:59;13.27;;;12.23;;
6207;SDS011;3137;51.550;7.060;2023-05-07T09:19:26;13.10;;;12.20;;
6207;SDS011;3137;51.550;7.060;2023-05-07T09:22:03;11.43;;;10.60;;
6207;SDS011;3137;51.550;7.060;2023-05-07T09:24:41;11.07;;;10.27;;
6207;SDS011;3137;51.550;7.060;2023-05-07T09:27:14;12.10;;;10.87;;
6207;SDS011;3137;51.550;7.060;2023-05-07T09:29:43;11.73;;;10.97;;
6207;SDS011;3137;51.550;7.060;2023-05-07T09:32:11;11.90;;;11.17;;
6207;SDS011;3137;51.550;7.060;2023-05-07T09:34:38;12.10;;;11.00;;
6207;SDS011;3137;51.550;7.060;2023-05-07T09:37:06;13.47;;;12.37;;
6207;SDS011;3137;51.550;7.060;2023-05-07T09:39:40;10.27;;;9.83;;
6207;SDS011;3137;51.550;7.060;2023-05-07T09:42:08;11.60;;;10.67;;
6207;SDS011;3137;51.550;7.060;2023-05-07T09:44:35;11.40;;;10.60;;
6207;SDS011;3137;51.550;7.060;2023-05-07T09:47:05;9.90;;;9.47;;
6207;SDS011;3137;51.550;7.060;2023-05-07T09:49:37;13.43;;;12.43;;
6207;SDS011;3137;51.550;7.060;2023-05-07T09:52:10;18.67;;;12.20;;
6207;SDS011;3137;51.550;7.060;2023-05-07T09:54:45;11.87;;;11.27;;
6207;SDS011;3137;51.550;7.060;2023-05-07T09:57:15;10.30;;;9.47;;
6207;SDS011;3137;51.550;7.060;2023-05-07T09:59:46;13.03;;;11.90;;
6207;SDS011;3137;51.550;7.060;2023-05-07T10:02:17;10.67;;;9.97;;
6207;SDS011;3137;51.550;7.060;2023-05-07T10:04:49;9.50;;;8.80;;
6207;SDS011;3137;51.550;7.060;2023-05-07T10:07:21;9.57;;;9.17;;
6207;SDS011;3137;51.550;7.060;2023-05-07T10:09:52;9.47;;;8.97;;
6207;SDS011;3137;51.550;7.060;2023-05-07T10:12:34;10.47;;;9.97;;
6207;SDS011;3137;51.550;7.060;2023-05-07T10:15:10;8.67;;;8.47;;
6207;SDS011;3137;51.550;7.060;2023-05-07T10:17:40;8.63;;;8.33;;
6207;SDS011;3137;51.550;7.060;2023-05-07T10:20:09;9.63;;;9.10;;
6207;SDS011;3137;51.550;7.060;2023-05-07T10:22:39;8.77;;;8.47;;
6207;SDS011;3137;51.550;7.060;2023-05-07T10:25:14;8.93;;;8.60;;
6207;SDS011;3137;51.550;7.060;2023-05-07T10:27:45;8.43;;;7.87;;
6207;SDS011;3137;51.550;7.060;2023-05-07T10:35:24;5.77;;;5.67;;
6207;SDS011;3137;51.550;7.060;2023-05-07T10:37:56;16.13;;;5.93;;
6207;SDS011;3137;51.550;7.060;2023-05-07T10:40:25;5.43;;;5.23;;
6207;SDS011;3137;51.550;7.060;2023-05-07T10:42:56;5.97;;;5.60;;
6207;SDS011;3137;51.550;7.060;2023-05-07T10:45:28;7.03;;;6.73;;
6207;SDS011;3137;51.550;7.060;2023-05-07T10:51:17;6.77;;;6.57;;
6207;SDS011;3137;51.550;7.060;2023-05-07T10:53:45;8.43;;;7.60;;
6207;SDS011;3137;51.550;7.060;2023-05-07T10:58:49;6.37;;;6.27;;
6207;SDS011;3137;51.550;7.060;2023-05-07T11:05:18;7.70;;;7.33;;
6207;SDS011;3137;51.550;7.060;2023-05-07T11:07:53;6.27;;;6.17;;
6207;SDS011;3137;51.550;7.060;2023-05-07T11:10:23;5.73;;;5.53;;
6207;SDS011;3137;51.550;7.060;2023-05-07T11:13:42;6.20;;;6.10;;
6207;SDS011;3137;51.550;7.060;2023-05-07T11:16:28;6.43;;;6.23;;
6207;SDS011;3137;51.550;7.060;2023-05-07T11:19:04;4.60;;;4.50;;
6207;SDS011;3137;51.550;7.060;2023-05-07T11:21:39;4.17;;;4.07;;
6207;SDS011;3137;51.550;7.060;2023-05-07T11:24:17;5.17;;;5.07;;
6207;SDS011;3137;51.550;7.060;2023-05-07T11:26:52;5.37;;;5.27;;
6207;SDS011;3137;51.550;7.060;2023-05-07T11:29:21;8.17;;;5.70;;
6207;SDS011;3137;51.550;7.060;2023-05-07T11:31:53;5.60;;;5.13;;
6207;SDS011;3137;51.550;7.060;2023-05-07T11:34:25;7.23;;;5.03;;
6207;SDS011;3137;51.550;7.060;2023-05-07T11:36:54;8.27;;;5.43;;
6207;SDS011;3137;51.550;7.060;2023-05-07T11:39:33;5.23;;;4.83;;
6207;SDS011;3137;51.550;7.060;2023-05-07T11:42:02;5.90;;;5.60;;
6207;SDS011;3137;51.550;7.060;2023-05-07T11:44:44;8.53;;;5.50;;
6207;SDS011;3137;51.550;7.060;2023-05-07T11:47:16;10.90;;;5.30;;
6207;SDS011;3137;51.550;7.060;2023-05-07T11:49:46;4.97;;;4.87;;
6207;SDS011;3137;51.550;7.060;2023-05-07T11:52:14;6.23;;;5.73;;
6207;SDS011;3137;51.550;7.060;2023-05-07T11:54:41;4.60;;;4.60;;
6207;SDS011;3137;51.550;7.060;2023-05-07T11:57:13;5.43;;;5.10;;
6207;SDS011;3137;51.550;7.060;2023-05-07T11:59:40;5.03;;;4.67;;
6207;SDS011;3137;51.550;7.060;2023-05-07T12:02:07;4.90;;;4.80;;
6207;SDS011;3137;51.550;7.060;2023-05-07T12:04:34;5.60;;;5.40;;
6207;SDS011;3137;51.550;7.060;2023-05-07T12:07:00;5.90;;;5.73;;
6207;SDS011;3137;51.550;7.060;2023-05-07T12:09:27;6.63;;;6.43;;
6207;SDS011;3137;51.550;7.060;2023-05-07T12:11:53;5.73;;;5.53;;
6207;SDS011;3137;51.550;7.060;2023-05-07T12:14:22;6.97;;;6.30;;
6207;SDS011;3137;51.550;7.060;2023-05-07T12:16:48;6.50;;;6.40;;
6207;SDS011;3137;51.550;7.060;2023-05-07T12:19:15;6.17;;;5.80;;
6207;SDS011;3137;51.550;7.060;2023-05-07T12:21:41;6.30;;;6.10;;
6207;SDS011;3137;51.550;7.060;2023-05-07T12:24:08;6.33;;;6.13;;
6207;SDS011;3137;51.550;7.060;2023-05-07T12:26:37;7.33;;;6.87;;
6207;SDS011;3137;51.550;7.060;2023-05-07T12:29:04;7.73;;;7.27;;
6207;SDS011;3137;51.550;7.060;2023-05-07T12:31:30;6.57;;;6.37;;
6207;SDS011;3137;51.550;7.060;2023-05-07T12:33:57;7.30;;;7.10;;
6207;SDS011;3137;51.550;7.060;2023-05-07T12:36:23;8.07;;;7.43;;
6207;SDS011;3137;51.550;7.060;2023-05-07T12:38:50;8.07;;;7.87;;
6207;SDS011;3137;51.550;7.060;2023-05-07T12:41:17;7.30;;;6.70;;
6207;SDS011;3137;51.550;7.060;2023-05-07T12:43:44;7.20;;;7.03;;
6207;SDS011;3137;51.550;7.060;2023-05-07T12:46:11;7.00;;;6.67;;
6207;SDS011;3137;51.550;7.060;2023-05-07T12:48:43;5.70;;;5.60;;
6207;SDS011;3137;51.550;7.060;2023-05-07T12:51:11;6.80;;;6.40;;
6207;SDS011;3137;51.550;7.060;2023-05-07T12:53:40;6.10;;;6.00;;
6207;SDS011;3137;51.550;7.060;2023-05-07T12:56:10;7.03;;;6.73;;
6207;SDS011;3137;51.550;7.060;2023-05-07T12:58:36;7.03;;;6.63;;
6207;SDS011;3137;51.550;7.060;2023-05-07T13:01:07;6.40;;;6.07;;
6207;SDS011;3137;51.550;7.060;2023-05-07T13:03:36;6.77;;;6.63;;
6207;SDS011;3137;51.550;7.060;2023-05-07T13:06:05;5.47;;;5.37;;
6207;SDS011;3137;51.550;7.060;2023-05-07T13:08:36;4.57;;;4.57;;
6207;SDS011;3137;51.550;7.060;2023-05-07T13:11:04;6.50;;;6.13;;
6207;SDS011;3137;51.550;7.060;2023-05-07T13:13:31;7.20;;;6.80;;
6207;SDS011;3137;51.550;7.060;2023-05-07T13:15:58;8.17;;;7.13;;
6207;SDS011;3137;51.550;7.060;2023-05-07T13:18:26;6.93;;;6.70;;
6207;SDS011;3137;51.550;7.060;2023-05-07T13:20:53;7.87;;;7.47;;
6207;SDS011;3137;51.550;7.060;2023-05-07T13:23:20;9.93;;;7.20;;
6207;SDS011;3137;51.550;7.060;2023-05-07T13:25:47;7.33;;;6.97;;
6207;SDS011;3137;51.550;7.060;2023-05-07T13:28:15;7.13;;;7.00;;
6207;SDS011;3137;51.550;7.060;2023-05-07T13:30:42;7.90;;;7.50;;
6207;SDS011;3137;51.550;7.060;2023-05-07T13:33:08;8.00;;;7.60;;
6207;SDS011;3137;51.550;7.060;2023-05-07T13:35:35;7.43;;;6.57;;
6207;SDS011;3137;51.550;7.060;2023-05-07T13:38:02;6.17;;;6.07;;
6207;SDS011;3137;51.550;7.060;2023-05-07T13:40:28;6.40;;;6.10;;
6207;SDS011;3137;51.550;7.060;2023-05-07T13:42:56;7.50;;;7.00;;
6207;SDS011;3137;51.550;7.060;2023-05-07T13:45:24;6.87;;;6.50;;
6207;SDS011;3137;51.550;7.060;2023-05-07T13:47:55;9.23;;;7.07;;
6207;SDS011;3137;51.550;7.060;2023-05-07T13:50:23;7.60;;;7.40;;
6207;SDS011;3137;51.550;7.060;2023-05-07T13:52:49;7.37;;;6.93;;
6207;SDS011;3137;51.550;7.060;2023-05-07T13:55:23;8.23;;;7.63;;
6207;SDS011;3137;51.550;7.060;2023-05-07T13:57:56;7.47;;;7.07;;
6207;SDS011;3137;51.550;7.060;2023-05-07T14:00:24;7.50;;;6.93;;
6207;SDS011;3137;51.550;7.060;2023-05-07T14:02:52;7.57;;;7.30;;
6207;SDS011;3137;51.550;7.060;2023-05-07T14:05:19;7.60;;;7.37;;
6207;SDS011;3137;51.550;7.060;2023-05-07T14:07:46;7.50;;;7.20;;
6207;SDS011;3137;51.550;7.060;2023-05-07T14:10:13;7.67;;;7.13;;
6207;SDS011;3137;51.550;7.060;2023-05-07T14:12:40;7.23;;;7.03;;
6207;SDS011;3137;51.550;7.060;2023-05-07T14:15:07;8.67;;;7.97;;
6207;SDS011;3137;51.550;7.060;2023-05-07T14:17:34;8.20;;;7.90;;
6207;SDS011;3137;51.550;7.060;2023-05-07T14:20:00;7.47;;;7.27;;
6207;SDS011;3137;51.550;7.060;2023-05-07T14:22:27;7.83;;;7.57;;
6207;SDS011;3137;51.550;7.060;2023-05-07T14:24:53;7.33;;;7.13;;
6207;SDS011;3137;51.550;7.060;2023-05-07T14:27:31;8.47;;;8.10;;
6207;SDS011;3137;51.550;7.060;2023-05-07T14:29:58;10.00;;;9.03;;
6207;SDS011;3137;51.550;7.060;2023-05-07T14:32:24;9.90;;;8.97;;
6207;SDS011;3137;51.550;7.060;2023-05-07T14:34:51;9.73;;;9.23;;
6207;SDS011;3137;51.550;7.060;2023-05-07T14:37:17;10.40;;;9.63;;
6207;SDS011;3137;51.550;7.060;2023-05-07T14:39:45;11.83;;;10.93;;
6207;SDS011;3137;51.550;7.060;2023-05-07T14:42:15;10.10;;;9.03;;
6207;SDS011;3137;51.550;7.060;2023-05-07T14:44:41;16.33;;;10.63;;
6207;SDS011;3137;51.550;7.060;2023-05-07T14:47:08;11.60;;;10.70;;
6207;SDS011;3137;51.550;7.060;2023-05-07T14:49:34;10.70;;;10.10;;
6207;SDS011;3137;51.550;7.060;2023-05-07T14:52:02;11.03;;;10.13;;
6207;SDS011;3137;51.550;7.060;2023-05-07T14:54:28;11.67;;;9.90;;
6207;SDS011;3137;51.550;7.060;2023-05-07T14:56:55;12.37;;;11.30;;
6207;SDS011;3137;51.550;7.060;2023-05-07T14:59:21;9.27;;;8.87;;
6207;SDS011;3137;51.550;7.060;2023-05-07T15:01:50;9.50;;;8.90;;
6207;SDS011;3137;51.550;7.060;2023-05-07T15:04:17;11.63;;;10.67;;
6207;SDS011;3137;51.550;7.060;2023-05-07T15:06:44;10.73;;;10.23;;
6207;SDS011;3137;51.550;7.060;2023-05-07T15:09:10;10.47;;;9.93;;
6207;SDS011;3137;51.550;7.060;2023-05-07T15:11:36;10.53;;;10.03;;
6207;SDS011;3137;51.550;7.060;2023-05-07T15:14:03;11.47;;;10.67;;
6207;SDS011;3137;51.550;7.060;2023-05-07T15:16:30;10.63;;;10.00;;
6207;SDS011;3137;51.550;7.060;2023-05-07T15:18:56;12.00;;;11.17;;
6207;SDS011;3137;51.550;7.060;2023-05-07T15:21:22;10.87;;;10.13;;
6207;SDS011;3137;51.550;7.060;2023-05-07T15:23:49;10.83;;;10.03;;